createdAt,value
2018-03-20T00:02:06.310Z,19.20
2018-03-20T00:04:33.768Z,15.73
2018-03-20T00:07:01.238Z,23.05
2018-03-20T00:09:28.680Z,20.73
2018-03-20T00:11:56.181Z,17.87
2018-03-20T00:14:24.408Z,21.95
2018-03-20T00:16:51.886Z,14.55
2018-03-20T00:19:19.373Z,20.37
2018-03-20T00:21:47.605Z,14.07
2018-03-20T00:24:15.060Z,15.90
2018-03-20T00:26:42.537Z,25.45
2018-03-20T00:29:10.009Z,18.87
2018-03-20T00:31:38.246Z,19.08
2018-03-20T00:34:05.713Z,17.48
2018-03-20T00:36:33.180Z,19.33
2018-03-20T00:39:00.737Z,16.15
2018-03-20T00:41:28.297Z,14.20
2018-03-20T00:43:55.748Z,22.05
2018-03-20T00:46:26.945Z,20.00
2018-03-20T00:48:54.509Z,16.60
2018-03-20T00:51:22.016Z,19.50
2018-03-20T00:53:49.477Z,15.40
2018-03-20T00:56:16.946Z,14.18
2018-03-20T00:58:45.169Z,21.90
2018-03-20T01:01:12.637Z,16.08
2018-03-20T01:03:40.140Z,13.70
2018-03-20T01:06:08.372Z,15.70
2018-03-20T01:08:35.843Z,21.85
2018-03-20T01:11:03.312Z,21.00
2018-03-20T01:13:30.916Z,14.13
2018-03-20T01:15:58.413Z,15.43
2018-03-20T01:18:25.927Z,16.42
2018-03-20T01:20:53.396Z,12.77
2018-03-20T01:23:20.854Z,24.87
2018-03-20T01:25:48.349Z,13.65
2018-03-20T01:28:16.585Z,14.13
2018-03-20T01:30:44.040Z,17.90
2018-03-20T01:33:11.504Z,14.65
2018-03-20T01:35:38.993Z,14.73
2018-03-20T01:38:06.461Z,13.98
2018-03-20T01:40:33.996Z,18.02
2018-03-20T01:43:01.452Z,16.10
2018-03-20T01:45:28.908Z,19.92
2018-03-20T01:47:56.368Z,16.33
2018-03-20T01:50:23.834Z,15.00
2018-03-20T01:53:03.160Z,16.70
2018-03-20T01:55:31.431Z,14.68
2018-03-20T01:57:58.892Z,17.42
2018-03-20T02:00:26.349Z,13.25
2018-03-20T02:02:54.620Z,11.43
2018-03-20T02:05:22.288Z,18.30
2018-03-20T02:07:49.958Z,12.20
2018-03-20T02:10:17.521Z,16.55
2018-03-20T02:12:44.997Z,15.10
2018-03-20T02:15:13.248Z,16.83
2018-03-20T02:17:40.708Z,13.68
2018-03-20T02:20:08.215Z,13.07
2018-03-20T02:22:35.686Z,14.63
2018-03-20T02:25:03.162Z,14.45
2018-03-20T02:27:30.748Z,14.07
2018-03-20T02:29:58.216Z,10.63
2018-03-20T02:32:26.470Z,19.05
2018-03-20T02:34:53.941Z,16.15
2018-03-20T02:37:22.161Z,15.02
2018-03-20T02:39:49.657Z,13.88
2018-03-20T02:42:17.118Z,15.38
2018-03-20T02:44:44.677Z,15.60
2018-03-20T02:47:12.141Z,11.93
2018-03-20T02:49:40.373Z,19.12
2018-03-20T02:52:07.865Z,15.00
2018-03-20T02:54:35.340Z,18.65
2018-03-20T02:57:03.589Z,15.30
2018-03-20T02:59:31.043Z,14.18
2018-03-20T03:02:00.044Z,15.90
2018-03-20T03:04:27.604Z,19.30
2018-03-20T03:06:55.148Z,14.18
2018-03-20T03:09:22.616Z,20.30
2018-03-20T03:11:50.164Z,16.30
2018-03-20T03:14:17.625Z,20.75
2018-03-20T03:16:45.112Z,18.98
2018-03-20T03:19:13.360Z,21.20
2018-03-20T03:21:41.601Z,23.75
2018-03-20T03:24:09.089Z,16.55
2018-03-20T03:26:36.558Z,21.50
2018-03-20T03:29:04.836Z,23.23
2018-03-20T03:31:32.341Z,20.52
2018-03-20T03:33:59.808Z,18.40
2018-03-20T03:36:27.284Z,13.68
2018-03-20T03:38:54.738Z,20.48
2018-03-20T03:41:22.205Z,23.08
2018-03-20T03:43:49.761Z,20.98
2018-03-20T03:46:18.744Z,17.33
2018-03-20T03:48:46.226Z,21.50
2018-03-20T03:51:13.771Z,17.77
2018-03-20T03:53:42.008Z,18.65
2018-03-20T03:56:09.512Z,17.75
2018-03-20T03:58:37.080Z,21.98
2018-03-20T04:01:04.637Z,16.65
2018-03-20T04:03:32.113Z,20.05
2018-03-20T04:06:00.391Z,21.98
2018-03-20T04:08:27.924Z,14.95
2018-03-20T04:10:55.405Z,20.73
2018-03-20T04:13:23.707Z,18.17
2018-03-20T04:15:51.199Z,14.38
2018-03-20T04:18:18.769Z,18.20
2018-03-20T04:20:46.247Z,20.90
2018-03-20T04:23:14.476Z,17.50
2018-03-20T04:25:42.809Z,14.87
2018-03-20T04:28:11.057Z,16.62
2018-03-20T04:30:39.278Z,16.45
2018-03-20T04:33:06.785Z,15.55
2018-03-20T04:35:34.249Z,14.48
2018-03-20T04:38:01.814Z,16.83
2018-03-20T04:40:30.044Z,16.00
2018-03-20T04:42:57.529Z,18.90
2018-03-20T04:45:25.001Z,18.73
2018-03-20T04:47:52.473Z,18.75
2018-03-20T04:50:20.698Z,18.98
2018-03-20T04:52:48.168Z,15.20
2018-03-20T04:55:15.645Z,25.40
2018-03-20T04:57:43.254Z,19.83
2018-03-20T05:00:10.728Z,13.70
2018-03-20T05:02:38.199Z,14.57
2018-03-20T05:05:05.697Z,14.15
2018-03-20T05:07:33.920Z,17.20
2018-03-20T05:10:01.396Z,17.42
2018-03-20T05:12:30.368Z,20.60
2018-03-20T05:14:57.839Z,19.35
2018-03-20T05:17:25.296Z,14.70
2018-03-20T05:23:10.046Z,17.60
2018-03-20T05:25:37.508Z,20.35
2018-03-20T05:28:04.976Z,13.35
2018-03-20T05:30:32.478Z,22.45
2018-03-20T05:33:00.708Z,16.45
2018-03-20T05:35:28.187Z,17.02
2018-03-20T05:37:55.671Z,18.95
2018-03-20T05:40:23.897Z,16.30
2018-03-20T05:42:51.388Z,23.92
2018-03-20T05:45:19.609Z,21.15
2018-03-20T05:47:49.553Z,14.13
2018-03-20T05:50:22.755Z,23.42
2018-03-20T05:52:50.208Z,14.57
2018-03-20T05:55:17.677Z,15.57
2018-03-20T05:57:45.345Z,12.93
2018-03-20T06:00:13.581Z,18.92
2018-03-20T06:02:41.058Z,28.27
2018-03-20T06:05:08.516Z,17.42
2018-03-20T06:07:36.008Z,14.35
2018-03-20T06:10:04.237Z,16.30
2018-03-20T06:12:31.701Z,14.52
2018-03-20T06:14:59.160Z,18.37
2018-03-20T06:17:26.616Z,12.93
2018-03-20T06:19:54.084Z,17.90
2018-03-20T06:22:21.654Z,13.00
2018-03-20T06:24:49.124Z,14.52
2018-03-20T06:27:17.410Z,24.77
2018-03-20T06:29:45.601Z,15.75
2018-03-20T06:32:13.096Z,10.55
2018-03-20T06:34:40.588Z,21.08
2018-03-20T06:37:08.824Z,16.77
2018-03-20T06:39:36.405Z,14.05
2018-03-20T06:42:03.976Z,18.37
2018-03-20T06:44:32.205Z,16.98
2018-03-20T06:46:59.671Z,17.33
2018-03-20T06:49:27.200Z,15.13
2018-03-20T06:51:54.658Z,14.02
2018-03-20T06:54:22.180Z,14.35
2018-03-20T06:56:50.413Z,15.18
2018-03-20T06:59:17.940Z,21.77
2018-03-20T07:01:45.409Z,15.93
2018-03-20T07:04:12.877Z,15.10
2018-03-20T07:06:41.348Z,15.45
2018-03-20T07:09:08.840Z,13.95
2018-03-20T07:11:36.400Z,15.40
2018-03-20T07:14:03.881Z,17.12
2018-03-20T07:16:32.108Z,15.35
2018-03-20T07:18:59.585Z,21.73
2018-03-20T07:21:27.825Z,20.17
2018-03-20T07:23:55.288Z,19.67
2018-03-20T07:26:22.744Z,20.65
2018-03-20T07:28:50.202Z,17.02
2018-03-20T07:31:17.669Z,16.15
2018-03-20T07:33:45.143Z,19.77
2018-03-20T07:36:12.614Z,13.43
2018-03-20T07:38:40.150Z,17.10
2018-03-20T07:41:07.713Z,15.52
2018-03-20T07:43:35.173Z,20.15
2018-03-20T07:46:02.739Z,17.27
2018-03-20T07:48:30.221Z,15.68
2018-03-20T07:50:57.666Z,19.08
2018-03-20T07:53:25.884Z,12.25
2018-03-20T07:55:53.388Z,22.83
2018-03-20T07:58:20.852Z,23.90
2018-03-20T08:00:49.258Z,16.48
2018-03-20T08:03:16.772Z,11.88
2018-03-20T08:05:44.250Z,22.85
2018-03-20T08:08:12.075Z,25.35
2018-03-20T08:10:39.527Z,27.20
2018-03-20T08:13:07.072Z,19.45
2018-03-20T08:15:35.244Z,16.75
2018-03-20T08:18:02.724Z,14.95
2018-03-20T08:20:30.185Z,19.42
2018-03-20T08:22:57.647Z,20.27
2018-03-20T08:25:25.116Z,15.38
2018-03-20T08:27:52.669Z,15.15
2018-03-20T08:30:20.148Z,20.92
2018-03-20T08:32:48.386Z,18.25
2018-03-20T08:35:15.877Z,17.00
2018-03-20T08:37:44.128Z,23.83
2018-03-20T08:40:11.696Z,23.08
2018-03-20T08:42:39.230Z,19.98
2018-03-20T08:45:06.762Z,20.48
2018-03-20T08:47:34.221Z,15.50
2018-03-20T08:50:01.720Z,27.05
2018-03-20T08:52:29.268Z,19.27
2018-03-20T08:54:56.736Z,18.23
2018-03-20T08:57:24.201Z,12.20
2018-03-20T08:59:51.692Z,14.13
2018-03-20T09:02:19.152Z,17.33
2018-03-20T09:04:46.658Z,23.20
2018-03-20T09:07:14.120Z,17.08
2018-03-20T09:09:41.577Z,18.30
2018-03-20T09:12:09.193Z,21.85
2018-03-20T09:14:36.640Z,22.05
2018-03-20T09:17:04.141Z,16.25
2018-03-20T09:19:31.606Z,18.80
2018-03-20T09:21:59.062Z,18.52
2018-03-20T09:24:26.574Z,16.95
2018-03-20T09:26:54.793Z,28.33
2018-03-20T09:29:23.781Z,21.77
2018-03-20T09:31:51.253Z,19.48
2018-03-20T09:34:18.759Z,22.13
2018-03-20T09:36:46.256Z,19.17
2018-03-20T09:39:13.721Z,18.58
2018-03-20T09:41:41.272Z,14.98
2018-03-20T09:44:08.846Z,20.62
2018-03-20T09:46:36.391Z,17.48
2018-03-20T09:49:03.932Z,18.42
2018-03-20T09:51:32.104Z,22.75
2018-03-20T09:53:59.571Z,28.95
2018-03-20T09:56:27.096Z,20.08
2018-03-20T09:58:54.558Z,19.12
2018-03-20T10:01:22.056Z,20.33
2018-03-20T10:03:49.624Z,19.37
2018-03-20T10:06:17.088Z,18.98
2018-03-20T10:08:45.345Z,27.98
2018-03-20T10:11:12.800Z,21.83
2018-03-20T10:13:40.289Z,24.15
2018-03-20T10:16:08.531Z,21.15
2018-03-20T10:18:36.099Z,22.48
2018-03-20T10:21:04.375Z,23.75
2018-03-20T10:23:31.864Z,22.30
2018-03-20T10:25:59.453Z,18.58
2018-03-20T10:28:26.924Z,18.80
2018-03-20T10:30:54.395Z,23.67
2018-03-20T10:33:21.857Z,22.10
2018-03-20T10:35:49.322Z,24.92
2018-03-20T10:38:16.794Z,25.10
2018-03-20T10:40:45.142Z,23.58
2018-03-20T10:43:13.378Z,28.83
2018-03-20T10:45:40.846Z,22.13
2018-03-20T10:48:08.341Z,27.80
2018-03-20T10:50:35.813Z,26.65
2018-03-20T10:53:04.049Z,28.65
2018-03-20T10:55:31.543Z,27.92
2018-03-20T10:57:59.808Z,33.80
2018-03-20T11:00:33.096Z,30.33
2018-03-20T11:03:08.289Z,28.55
2018-03-20T11:05:35.798Z,26.48
2018-03-20T11:08:03.348Z,27.73
2018-03-20T11:10:30.822Z,24.20
2018-03-20T11:12:59.076Z,28.58
2018-03-20T11:15:26.545Z,26.23
2018-03-20T11:17:54.107Z,30.23
2018-03-20T11:20:21.582Z,34.70
2018-03-20T11:22:49.834Z,35.20
2018-03-20T11:25:17.365Z,27.10
2018-03-20T11:27:44.833Z,26.98
2018-03-20T11:30:12.308Z,22.55
2018-03-20T11:32:39.765Z,26.58
2018-03-20T11:35:07.294Z,36.67
2018-03-20T11:37:34.776Z,24.63
2018-03-20T11:40:02.329Z,28.98
2018-03-20T11:42:29.790Z,31.87
2018-03-20T11:44:57.344Z,28.55
2018-03-20T11:47:25.014Z,25.30
2018-03-20T11:49:52.599Z,30.00
2018-03-20T11:52:20.180Z,27.73
2018-03-20T11:54:47.740Z,36.65
2018-03-20T11:57:15.237Z,30.67
2018-03-20T11:59:42.704Z,32.25
2018-03-20T12:02:10.237Z,25.02
2018-03-20T12:04:37.710Z,28.00
2018-03-20T12:07:05.178Z,29.65
2018-03-20T12:09:38.183Z,35.10
2018-03-20T12:12:06.421Z,37.47
2018-03-20T12:14:35.398Z,33.05
2018-03-20T12:17:02.865Z,24.65
2018-03-20T12:19:30.333Z,36.25
2018-03-20T12:21:57.874Z,24.92
2018-03-20T12:24:25.396Z,21.40
2018-03-20T12:26:52.933Z,27.05
2018-03-20T12:29:21.157Z,27.13
2018-03-20T12:31:48.708Z,30.42
2018-03-20T12:34:16.175Z,27.60
2018-03-20T12:36:43.652Z,39.30
2018-03-20T12:39:11.173Z,30.30
2018-03-20T12:41:38.646Z,25.70
2018-03-20T12:44:06.225Z,27.05
2018-03-20T12:46:33.866Z,26.87
2018-03-20T12:49:02.083Z,56.95
2018-03-20T12:51:29.520Z,25.83
2018-03-20T12:53:57.088Z,19.95
2018-03-20T12:56:24.561Z,25.83
2018-03-20T12:58:52.802Z,20.80
2018-03-20T13:01:20.268Z,25.80
2018-03-20T13:03:47.756Z,21.02
2018-03-20T13:06:15.975Z,18.65
2018-03-20T13:08:43.461Z,19.60
2018-03-20T13:11:10.918Z,22.45
2018-03-20T13:13:38.384Z,17.42
2018-03-20T13:16:06.628Z,17.87
2018-03-20T13:18:34.096Z,18.95
2018-03-20T13:21:01.557Z,17.87
2018-03-20T13:23:29.077Z,21.62
2018-03-20T13:25:56.531Z,20.92
2018-03-20T13:28:24.004Z,23.15
2018-03-20T13:30:51.460Z,20.27
2018-03-20T13:33:18.929Z,22.48
2018-03-20T13:35:46.458Z,16.48
2018-03-20T13:38:13.928Z,18.27
2018-03-20T13:40:41.388Z,22.33
2018-03-20T13:43:08.855Z,20.90
2018-03-20T13:45:36.324Z,24.40
2018-03-20T13:48:03.821Z,18.33
2018-03-20T13:50:32.047Z,16.02
2018-03-20T13:52:59.521Z,23.70
2018-03-20T13:55:26.956Z,22.65
2018-03-20T13:57:54.438Z,17.33
2018-03-20T14:00:22.090Z,15.57
2018-03-20T14:02:49.547Z,16.90
2018-03-20T14:05:17.009Z,20.02
2018-03-20T14:07:44.556Z,17.33
2018-03-20T14:10:12.023Z,17.75
2018-03-20T14:12:39.480Z,19.77
2018-03-20T14:15:06.944Z,17.12
2018-03-20T14:17:34.402Z,18.00
2018-03-20T14:20:01.862Z,16.30
2018-03-20T14:22:30.122Z,13.55
2018-03-20T14:24:57.689Z,15.07
2018-03-20T14:27:25.144Z,14.77
2018-03-20T14:29:52.604Z,12.77
2018-03-20T14:32:20.060Z,11.12
2018-03-20T14:34:47.613Z,11.43
2018-03-20T14:37:15.175Z,14.90
2018-03-20T14:39:42.653Z,16.33
2018-03-20T14:42:10.871Z,17.85
2018-03-20T14:44:38.364Z,16.50
2018-03-20T14:47:05.814Z,14.40
2018-03-20T14:49:33.272Z,15.65
2018-03-20T14:52:00.745Z,14.68
2018-03-20T14:54:28.972Z,14.80
2018-03-20T14:56:56.429Z,12.98
2018-03-20T14:59:23.915Z,14.20
2018-03-20T15:01:51.384Z,12.98
2018-03-20T15:04:18.934Z,10.38
2018-03-20T15:06:46.484Z,10.32
2018-03-20T15:09:13.939Z,10.38
2018-03-20T15:11:41.506Z,6.00
2018-03-20T15:14:08.961Z,7.32
2018-03-20T15:16:37.927Z,9.90
2018-03-20T15:19:05.375Z,10.80
2018-03-20T15:21:32.924Z,6.30
2018-03-20T15:24:00.429Z,6.47
2018-03-20T15:26:27.889Z,11.40
2018-03-20T15:28:55.350Z,7.18
2018-03-20T15:31:22.821Z,5.43
2018-03-20T15:33:51.049Z,6.05
2018-03-20T15:36:18.513Z,5.03
2018-03-20T15:38:45.978Z,8.38
2018-03-20T15:41:13.432Z,4.45
2018-03-20T15:43:40.884Z,3.20
2018-03-20T15:46:08.342Z,3.45
2018-03-20T15:48:35.796Z,2.92
2018-03-20T15:51:03.288Z,5.65
2018-03-20T15:53:31.515Z,2.75
2018-03-20T15:55:59.016Z,4.82
2018-03-20T15:58:26.474Z,4.30
2018-03-20T16:00:54.707Z,7.25
2018-03-20T16:03:22.162Z,3.37
2018-03-20T16:05:49.644Z,2.37
2018-03-20T16:08:17.106Z,2.55
2018-03-20T16:10:44.656Z,6.40
2018-03-20T16:13:12.225Z,2.17
2018-03-20T16:15:39.680Z,5.62
2018-03-20T16:18:07.141Z,5.25
2018-03-20T16:20:34.600Z,1.35
2018-03-20T16:23:02.069Z,5.95
2018-03-20T16:25:30.293Z,1.95
2018-03-20T16:27:57.774Z,2.58
2018-03-20T16:30:25.231Z,3.28
2018-03-20T16:32:52.693Z,1.77
2018-03-20T16:35:20.142Z,4.82
2018-03-20T16:37:47.702Z,2.60
2018-03-20T16:40:15.156Z,4.62
2018-03-20T16:42:42.612Z,2.47
2018-03-20T16:45:10.136Z,1.75
2018-03-20T16:47:37.595Z,3.20
2018-03-20T16:50:05.054Z,2.58
2018-03-20T16:52:32.511Z,4.10
2018-03-20T16:55:00.009Z,5.60
2018-03-20T16:57:27.472Z,5.12
2018-03-20T16:59:55.081Z,2.35
2018-03-20T17:02:22.549Z,9.65
2018-03-20T17:04:50.002Z,2.22
2018-03-20T17:07:17.487Z,2.97
2018-03-20T17:09:46.454Z,5.07
2018-03-20T17:12:13.937Z,3.67
2018-03-20T17:14:41.395Z,8.15
2018-03-20T17:17:08.880Z,4.50
2018-03-20T17:19:37.094Z,9.82
2018-03-20T17:22:04.557Z,4.30
2018-03-20T17:24:32.005Z,3.30
2018-03-20T17:26:59.595Z,5.80
2018-03-20T17:29:27.053Z,8.18
2018-03-20T17:31:54.505Z,9.93
2018-03-20T17:34:21.977Z,3.42
2018-03-20T17:36:50.206Z,9.48
2018-03-20T17:39:17.712Z,4.57
2018-03-20T17:41:45.167Z,3.30
2018-03-20T17:44:12.650Z,4.65
2018-03-20T17:46:40.997Z,1.60
2018-03-20T17:49:08.469Z,5.30
2018-03-20T17:51:36.684Z,3.58
2018-03-20T17:54:04.157Z,6.30
2018-03-20T17:56:31.724Z,2.58
2018-03-20T17:58:59.191Z,4.93
2018-03-20T18:01:27.434Z,3.80
2018-03-20T18:03:55.196Z,5.55
2018-03-20T18:06:22.652Z,3.40
2018-03-20T18:08:50.195Z,2.90
2018-03-20T18:11:18.388Z,3.97
2018-03-20T18:13:45.853Z,2.65
2018-03-20T18:16:13.333Z,5.05
2018-03-20T18:18:40.793Z,2.50
2018-03-20T18:21:09.088Z,4.30
2018-03-20T18:23:37.308Z,4.50
2018-03-20T18:26:04.860Z,8.00
2018-03-20T18:28:32.331Z,4.25
2018-03-20T18:30:59.786Z,4.68
2018-03-20T18:33:27.265Z,5.95
2018-03-20T18:35:54.730Z,2.80
2018-03-20T18:38:22.187Z,9.48
2018-03-20T18:40:49.659Z,5.03
2018-03-20T18:43:17.208Z,14.55
2018-03-20T18:45:44.769Z,3.50
2018-03-20T18:48:12.229Z,9.25
2018-03-20T18:50:39.778Z,5.97
2018-03-20T18:53:08.006Z,3.87
2018-03-20T18:55:35.501Z,3.97
2018-03-20T18:58:02.952Z,9.18
2018-03-20T19:00:30.412Z,6.28
2018-03-20T19:02:57.861Z,5.00
2018-03-20T19:05:25.338Z,4.72
2018-03-20T19:07:52.910Z,6.50
2018-03-20T19:10:20.450Z,3.92
2018-03-20T19:12:47.900Z,1.92
2018-03-20T19:15:15.368Z,7.65
2018-03-20T19:17:42.922Z,3.72
2018-03-20T19:20:10.423Z,5.57
2018-03-20T19:22:37.820Z,4.55
2018-03-20T19:25:05.277Z,6.28
2018-03-20T19:27:32.728Z,4.50
2018-03-20T19:30:00.180Z,5.03
2018-03-20T19:32:27.668Z,5.28
2018-03-20T19:34:55.119Z,5.68
2018-03-20T19:37:22.572Z,7.32
2018-03-20T19:39:50.048Z,8.90
2018-03-20T19:42:17.530Z,3.85
2018-03-20T19:44:44.991Z,4.37
2018-03-20T19:47:12.453Z,2.85
2018-03-20T19:49:39.954Z,6.35
2018-03-20T19:52:07.417Z,4.12
2018-03-20T19:54:34.976Z,3.50
2018-03-20T19:57:02.540Z,2.65
2018-03-20T19:59:30.057Z,4.85
2018-03-20T20:01:57.508Z,5.93
2018-03-20T20:04:24.974Z,9.82
2018-03-20T20:06:52.420Z,3.92
2018-03-20T20:09:19.884Z,6.22
2018-03-20T20:11:47.332Z,2.58
2018-03-20T20:14:14.802Z,2.55
2018-03-20T20:16:42.280Z,2.37
2018-03-20T20:19:09.738Z,1.92
2018-03-20T20:21:37.192Z,9.38
2018-03-20T20:24:04.661Z,3.53
2018-03-20T20:26:32.121Z,7.22
2018-03-20T20:28:59.677Z,8.98
2018-03-20T20:31:27.134Z,5.03
2018-03-20T20:33:54.637Z,6.18
2018-03-20T20:36:22.099Z,3.50
2018-03-20T20:38:49.561Z,9.07
2018-03-20T20:41:17.070Z,2.40
2018-03-20T20:43:44.531Z,4.37
2018-03-20T20:46:11.977Z,2.78
2018-03-20T20:48:39.441Z,5.70
2018-03-20T20:51:06.988Z,6.18
2018-03-20T20:53:34.450Z,7.10
2018-03-20T20:56:01.911Z,3.90
2018-03-20T20:58:29.370Z,2.37
2018-03-20T21:00:56.916Z,3.60
2018-03-20T21:03:24.376Z,7.62
2018-03-20T21:05:51.827Z,6.47
2018-03-20T21:08:19.294Z,6.62
2018-03-20T21:10:46.758Z,3.33
2018-03-20T21:13:14.298Z,5.25
2018-03-20T21:15:41.852Z,6.40
2018-03-20T21:18:09.328Z,4.25
2018-03-20T21:20:36.873Z,6.43
2018-03-20T21:23:04.324Z,6.20
2018-03-20T21:25:31.779Z,4.55
2018-03-20T21:27:59.364Z,6.62
2018-03-20T21:30:26.815Z,7.35
2018-03-20T21:32:54.342Z,6.90
2018-03-20T21:35:21.804Z,8.23
2018-03-20T21:37:49.271Z,4.50
2018-03-20T21:40:16.725Z,4.28
2018-03-20T21:42:44.197Z,7.28
2018-03-20T21:45:11.743Z,2.87
2018-03-20T21:47:39.306Z,3.35
2018-03-20T21:50:06.865Z,8.20
2018-03-20T21:52:34.325Z,4.97
2018-03-20T21:55:01.788Z,3.83
2018-03-20T21:57:29.236Z,1.85
2018-03-20T21:59:56.811Z,3.45
2018-03-20T22:02:24.256Z,4.87
2018-03-20T22:04:51.710Z,4.45
2018-03-20T22:07:19.259Z,5.05
2018-03-20T22:09:46.820Z,3.65
2018-03-20T22:12:14.300Z,5.32
2018-03-20T22:14:42.515Z,5.65
2018-03-20T22:17:09.987Z,3.70
2018-03-20T22:19:37.433Z,9.98
2018-03-20T22:22:04.927Z,4.45
2018-03-20T22:24:32.380Z,3.70
2018-03-20T22:26:59.852Z,9.07
2018-03-20T22:29:27.304Z,6.87
2018-03-20T22:31:54.769Z,5.55
2018-03-20T22:34:23.025Z,6.20
2018-03-20T22:36:50.484Z,4.45
2018-03-20T22:39:17.947Z,6.32
2018-03-20T22:41:45.476Z,4.82
2018-03-20T22:44:12.925Z,4.93
2018-03-20T22:46:40.377Z,3.08
2018-03-20T22:49:07.835Z,4.03
2018-03-20T22:51:35.332Z,3.60
2018-03-20T22:54:02.786Z,5.12
2018-03-20T22:56:30.243Z,3.33
2018-03-20T22:58:57.693Z,9.75
2018-03-20T23:01:25.167Z,4.95
2018-03-20T23:03:53.435Z,9.15
2018-03-20T23:06:20.986Z,4.68
2018-03-20T23:08:48.658Z,4.95
2018-03-20T23:11:16.162Z,3.62
2018-03-20T23:13:43.620Z,10.77
2018-03-20T23:16:11.109Z,8.02
2018-03-20T23:18:38.578Z,7.60
2018-03-20T23:21:06.133Z,4.10
2018-03-20T23:23:33.602Z,4.28
2018-03-20T23:26:01.060Z,4.97
2018-03-20T23:28:29.288Z,4.72
2018-03-20T23:30:56.784Z,5.53
2018-03-20T23:33:24.246Z,4.07
2018-03-20T23:35:51.854Z,6.68
2018-03-20T23:38:19.325Z,4.00
2018-03-20T23:40:46.783Z,9.05
2018-03-20T23:43:14.244Z,5.22
2018-03-20T23:45:41.696Z,4.12
2018-03-20T23:48:09.152Z,5.18
2018-03-20T23:50:36.633Z,8.77
2018-03-20T23:53:04.105Z,5.60
2018-03-20T23:55:31.601Z,9.77
2018-03-20T23:57:59.105Z,4.25
